Time;durP1;ratioP1;P1;durP2;ratioP2;P2;SDS_P1;SDS_P2;PMS_P1;PMS_P2;Temp;Humidity;BMP_temperature;BMP_pressure;BME280_temperature;BME280_humidity;BME280_pressure;Samples;Min_cycle;Max_cycle;Signal;HPM_P1;HPM_P2
2021/01/01 00:00:09;;;;;;;90.93;41.47;;;;;;;8.50;60.29;94036.84;5074159;28;20190;-74
2021/01/01 00:02:35;;;;;;;86.63;41.97;;;;;;;8.52;60.16;94039.91;5073784;28;20413;-75
2021/01/01 00:05:01;;;;;;;93.33;41.47;;;;;;;8.07;61.63;94055.34;5074199;28;20417;-75
2021/01/01 00:07:26;;;;;;;82.30;40.53;;;;;;;7.76;62.75;94053.56;5073779;28;20425;-73
2021/01/01 00:09:52;;;;;;;81.07;39.07;;;;;;;8.02;62.06;94046.88;5073970;28;20696;-73
2021/01/01 00:12:17;;;;;;;84.30;39.13;;;;;;;8.13;62.17;94059.28;5073927;28;20549;-74
2021/01/01 00:14:43;;;;;;;78.53;40.07;;;;;;;8.25;61.23;94058.41;5074097;28;20167;-73
2021/01/01 00:17:08;;;;;;;74.13;36.17;;;;;;;8.36;60.95;94053.28;5073656;28;20661;-73
2021/01/01 00:19:34;;;;;;;89.47;41.17;;;;;;;7.92;62.42;94056.19;5073834;28;20600;-75
2021/01/01 00:21:59;;;;;;;91.77;40.47;;;;;;;8.09;62.15;94058.47;5073450;28;20217;-75
2021/01/01 00:24:25;;;;;;;73.93;38.93;;;;;;;8.19;61.65;94059.78;5073612;28;20167;-74
2021/01/01 00:26:51;;;;;;;73.50;37.23;;;;;;;8.13;62.09;94056.63;5073817;28;20167;-73
2021/01/01 00:29:16;;;;;;;66.27;33.13;;;;;;;7.82;62.94;94067.38;5073139;28;20688;-75
2021/01/01 00:31:42;;;;;;;65.47;31.13;;;;;;;8.16;61.51;94066.56;5072457;28;20175;-74
2021/01/01 00:34:07;;;;;;;71.23;33.73;;;;;;;8.31;61.28;94066.88;5073397;28;20171;-73
2021/01/01 00:36:32;;;;;;;62.77;31.20;;;;;;;7.92;61.86;94069.50;5073435;28;20171;-72
2021/01/01 00:38:58;;;;;;;60.83;31.33;;;;;;;8.06;61.88;94074.31;5073138;28;20178;-73
2021/01/01 00:41:25;;;;;;;72.27;33.67;;;;;;;7.97;62.15;94074.53;5073461;28;20167;-73
2021/01/01 00:43:52;;;;;;;73.00;33.37;;;;;;;8.05;61.84;94083.41;5073472;28;20175;-73
2021/01/01 00:46:17;;;;;;;67.80;33.03;;;;;;;7.95;61.88;94076.75;5073415;28;20417;-73
2021/01/01 00:48:43;;;;;;;61.53;28.50;;;;;;;8.06;61.31;94080.41;5073197;28;20519;-73
2021/01/01 00:51:08;;;;;;;57.57;28.57;;;;;;;8.15;60.50;94088.97;5072924;28;20201;-74
2021/01/01 00:53:34;;;;;;;66.00;28.93;;;;;;;8.13;61.29;94087.75;5073119;28;20178;-75
2021/01/01 00:55:59;;;;;;;68.00;29.73;;;;;;;8.15;60.83;94086.31;5072943;28;20167;-75
2021/01/01 00:58:25;;;;;;;66.83;28.80;;;;;;;8.07;61.62;94084.59;5071871;28;20198;-73
2021/01/01 01:00:50;;;;;;;56.47;29.30;;;;;;;7.71;62.81;94079.66;5072877;28;20709;-73
2021/01/01 01:03:16;;;;;;;69.77;34.40;;;;;;;7.25;63.99;94084.66;5073176;28;20175;-73
2021/01/01 01:05:41;;;;;;;64.43;31.30;;;;;;;6.94;64.93;94099.44;5072722;28;20175;-73
2021/01/01 01:08:07;;;;;;;72.80;30.67;;;;;;;7.23;64.23;94100.16;5073163;28;20178;-72
2021/01/01 01:10:32;;;;;;;59.90;29.87;;;;;;;6.96;65.14;94105.19;5072756;28;20183;-74
2021/01/01 01:12:58;;;;;;;48.77;25.50;;;;;;;6.94;65.33;94098.66;5072515;28;20175;-74
2021/01/01 01:15:23;;;;;;;60.40;26.93;;;;;;;7.45;63.66;94101.44;5072769;28;20532;-74
2021/01/01 01:17:49;;;;;;;56.13;26.23;;;;;;;7.73;62.83;94094.13;5072502;28;20183;-73
2021/01/01 01:20:14;;;;;;;41.63;20.80;;;;;;;7.77;62.74;94102.19;5072760;28;20577;-74
2021/01/01 01:22:40;;;;;;;44.37;21.57;;;;;;;7.59;63.21;94102.56;5072441;28;20257;-74
2021/01/01 01:25:06;;;;;;;49.37;22.90;;;;;;;7.26;63.62;94108.22;5072432;28;20174;-74
2021/01/01 01:27:31;;;;;;;44.00;22.77;;;;;;;7.07;65.08;94113.41;5072212;28;20171;-74
2021/01/01 01:29:57;;;;;;;50.77;23.07;;;;;;;7.02;65.21;94116.34;5072487;28;20625;-74
2021/01/01 01:32:22;;;;;;;43.60;22.13;;;;;;;7.14;64.21;94110.94;5072448;28;20228;-74
2021/01/01 01:34:48;;;;;;;53.43;24.53;;;;;;;7.44;63.57;94111.28;5071555;28;20175;-75
2021/01/01 01:37:13;;;;;;;46.77;23.23;;;;;;;7.02;64.22;94111.78;5072263;28;20207;-75
2021/01/01 01:39:39;;;;;;;47.63;23.70;;;;;;;6.88;65.23;94090.94;5072180;28;20560;-74
2021/01/01 01:42:04;;;;;;;39.97;18.00;;;;;;;7.12;64.71;94107.84;5072347;28;20649;-74
2021/01/01 01:44:30;;;;;;;36.47;17.77;;;;;;;7.42;64.17;94111.63;5071947;28;20229;-74
2021/01/01 01:46:55;;;;;;;38.20;18.33;;;;;;;7.47;63.59;94101.88;5072341;28;20609;-74
2021/01/01 01:49:21;;;;;;;40.70;18.67;;;;;;;7.60;63.41;94106.75;5070461;28;20227;-73
2021/01/01 01:51:47;;;;;;;33.87;17.07;;;;;;;7.26;64.21;94112.75;5054542;28;20610;-75
2021/01/01 01:54:14;;;;;;;36.17;18.40;;;;;;;7.21;63.37;94127.03;5070684;28;20178;-73
2021/01/01 01:56:40;;;;;;;38.57;19.00;;;;;;;6.67;64.63;94116.91;5071832;28;20417;-74
2021/01/01 01:59:06;;;;;;;36.63;17.40;;;;;;;6.78;64.86;94123.28;5070933;28;20766;-75
2021/01/01 02:01:31;;;;;;;44.27;19.77;;;;;;;6.70;65.38;94126.88;5071677;28;20474;-73
2021/01/01 02:03:57;;;;;;;40.23;18.57;;;;;;;7.09;64.27;94132.44;5072021;28;20265;-74
2021/01/01 02:06:22;;;;;;;36.23;18.43;;;;;;;6.75;65.54;94136.47;5071977;28;20175;-75
2021/01/01 02:08:51;;;;;;;38.87;19.23;;;;;;;6.68;65.95;94136.25;5071900;28;20267;-76
2021/01/01 02:11:16;;;;;;;35.87;18.80;;;;;;;7.16;64.53;94129.94;5069884;28;20266;-73
2021/01/01 02:13:44;;;;;;;41.87;19.23;;;;;;;7.41;63.68;94126.03;5070914;28;20563;-73
2021/01/01 02:16:10;;;;;;;37.03;18.30;;;;;;;6.92;65.38;94130.09;5054085;28;20265;-74
2021/01/01 02:18:38;;;;;;;37.33;19.53;;;;;;;7.11;65.61;94136.28;5070742;28;20516;-74
2021/01/01 02:21:05;;;;;;;42.43;19.93;;;;;;;6.94;66.10;94127.88;5069965;28;20191;-76
2021/01/01 02:23:30;;;;;;;39.30;18.80;;;;;;;7.08;65.04;94130.91;5070840;28;20409;-76
2021/01/01 02:25:56;;;;;;;36.17;18.80;;;;;;;6.88;65.36;94136.06;5071681;28;20413;-74
2021/01/01 02:28:21;;;;;;;35.87;18.30;;;;;;;6.80;66.22;94138.88;5071285;28;20246;-76
2021/01/01 02:30:48;;;;;;;39.80;18.50;;;;;;;6.92;65.43;94138.81;5071727;28;20174;-74
2021/01/01 02:33:14;;;;;;;34.17;17.73;;;;;;;7.16;65.14;94141.34;5070165;28;20269;-74
2021/01/01 02:35:39;;;;;;;37.63;19.43;;;;;;;7.14;65.31;94146.22;5071788;28;20443;-75
2021/01/01 02:38:05;;;;;;;37.80;18.53;;;;;;;7.24;64.75;94150.28;5071410;28;20200;-76
2021/01/01 02:40:30;;;;;;;40.57;19.00;;;;;;;7.13;65.10;94141.28;5071713;28;20179;-73
2021/01/01 02:42:56;;;;;;;38.57;17.77;;;;;;;7.13;65.02;94149.22;5071386;28;20159;-73
2021/01/01 02:45:21;;;;;;;34.30;16.90;;;;;;;7.01;65.25;94146.63;5073812;28;20162;-76
2021/01/01 02:47:47;;;;;;;44.50;18.47;;;;;;;6.99;64.96;94146.19;5075525;28;20684;-73
2021/01/01 02:50:12;;;;;;;40.40;17.93;;;;;;;7.13;64.78;94159.84;5075531;28;20203;-75
2021/01/01 02:52:38;;;;;;;40.40;17.97;;;;;;;7.08;65.14;94155.56;5075702;28;20723;-74
2021/01/01 02:55:05;;;;;;;39.87;19.40;;;;;;;7.09;64.81;94156.31;5075300;28;20171;-75
2021/01/01 02:57:31;;;;;;;37.20;17.40;;;;;;;7.10;65.29;94163.94;5075315;28;20519;-75
2021/01/01 02:59:56;;;;;;;34.53;17.23;;;;;;;7.09;64.78;94156.31;5075306;28;20511;-74
2021/01/01 03:02:21;;;;;;;34.27;16.87;;;;;;;7.40;63.97;94158.22;5075338;28;20254;-73
2021/01/01 03:04:47;;;;;;;39.87;17.27;;;;;;;6.86;66.09;94164.06;5075084;28;20259;-73
2021/01/01 03:07:12;;;;;;;39.30;17.60;;;;;;;7.09;65.15;94143.81;5075364;28;20194;-73
2021/01/01 03:09:38;;;;;;;35.03;16.53;;;;;;;7.12;64.64;94156.41;5074987;28;20226;-74
2021/01/01 03:12:04;;;;;;;33.47;16.00;;;;;;;7.28;63.86;94160.97;5075192;28;20667;-74
2021/01/01 03:14:29;;;;;;;30.53;15.33;;;;;;;7.14;63.68;94146.22;5075070;28;20262;-76
2021/01/01 03:16:55;;;;;;;31.67;15.47;;;;;;;7.37;62.96;94156.28;5075116;28;20167;-75
2021/01/01 03:19:20;;;;;;;27.97;14.13;;;;;;;7.27;63.25;94144.28;5073899;28;20171;-73
2021/01/01 03:21:46;;;;;;;35.77;15.03;;;;;;;6.95;65.20;94158.59;5074834;28;20170;-74
2021/01/01 03:24:11;;;;;;;35.77;15.40;;;;;;;6.75;65.97;94160.34;5075009;28;20269;-74
2021/01/01 03:26:37;;;;;;;35.30;15.67;;;;;;;7.06;64.66;94157.75;5074579;28;20730;-73
2021/01/01 03:29:03;;;;;;;32.40;15.67;;;;;;;6.82;65.96;94163.19;5074786;28;20238;-73
2021/01/01 03:31:28;;;;;;;31.73;16.40;;;;;;;6.68;66.33;94163.59;5075145;28;20571;-73
2021/01/01 03:33:54;;;;;;;30.53;14.67;;;;;;;7.06;64.76;94165.72;5074761;28;20647;-74
2021/01/01 03:36:19;;;;;;;26.77;14.07;;;;;;;7.13;64.58;94165.94;5074374;28;20212;-73
2021/01/01 03:38:46;;;;;;;31.73;14.97;;;;;;;7.01;64.90;94165.97;5074814;28;20179;-73
2021/01/01 03:41:12;;;;;;;31.50;15.33;;;;;;;6.69;65.80;94164.34;5074953;28;20548;-72
2021/01/01 03:43:38;;;;;;;30.07;14.77;;;;;;;6.82;65.48;94158.66;5074482;28;20417;-73
2021/01/01 03:46:03;;;;;;;32.10;14.90;;;;;;;6.90;64.96;94156.94;5073452;28;20474;-73
2021/01/01 03:48:29;;;;;;;32.40;14.17;;;;;;;6.60;66.05;94156.53;5074345;28;20203;-73
2021/01/01 03:50:54;;;;;;;32.27;14.77;;;;;;;7.02;63.69;94159.56;5074398;28;20225;-75
2021/01/01 03:53:20;;;;;;;22.20;11.97;;;;;;;6.97;63.55;94159.03;5074252;28;20625;-73
2021/01/01 03:55:46;;;;;;;27.97;14.93;;;;;;;7.04;64.06;94161.88;5074330;28;20171;-75
2021/01/01 03:58:11;;;;;;;28.03;12.80;;;;;;;7.12;63.63;94163.59;5105860;28;20605;-73
2021/01/01 04:00:37;;;;;;;31.27;15.30;;;;;;;6.70;64.56;94169.31;5074115;28;20319;-73
2021/01/01 04:03:02;;;;;;;34.40;14.90;;;;;;;6.85;64.39;94170.50;5074150;28;20171;-74
2021/01/01 04:05:28;;;;;;;27.43;13.73;;;;;;;6.81;64.85;94170.38;5074426;28;20666;-73
2021/01/01 04:07:53;;;;;;;30.07;13.20;;;;;;;6.42;66.50;94171.19;5074107;28;20209;-73
2021/01/01 04:10:19;;;;;;;29.60;13.87;;;;;;;6.64;65.38;94168.03;5073823;28;20214;-75
2021/01/01 04:12:44;;;;;;;24.07;12.80;;;;;;;6.65;64.85;94155.53;5073921;28;20558;-75
2021/01/01 04:15:10;;;;;;;29.60;13.93;;;;;;;6.44;65.73;94185.63;5073426;28;20258;-72
2021/01/01 04:17:35;;;;;;;25.87;12.20;;;;;;;6.31;66.48;94186.78;5072524;28;20182;-74
2021/01/01 04:20:01;;;;;;;26.10;13.37;;;;;;;6.45;65.82;94179.22;5072417;28;20175;-73
2021/01/01 04:22:26;;;;;;;31.40;13.50;;;;;;;5.96;66.89;94186.50;5073969;28;20668;-72
2021/01/01 04:24:52;;;;;;;28.00;12.97;;;;;;;6.06;67.63;94189.47;5073597;28;20385;-74
2021/01/01 04:27:17;;;;;;;24.47;14.27;;;;;;;6.37;66.04;94196.03;5073600;28;20218;-72
2021/01/01 04:29:43;;;;;;;29.67;14.73;;;;;;;6.44;66.44;94200.78;5073650;28;20209;-73
2021/01/01 04:32:08;;;;;;;26.73;13.10;;;;;;;6.66;65.38;94202.16;5073752;28;20175;-73
2021/01/01 04:34:34;;;;;;;30.13;13.63;;;;;;;6.40;66.82;94202.53;5072534;28;20171;-72
2021/01/01 04:36:59;;;;;;;27.53;13.80;;;;;;;6.48;66.27;94186.50;5073742;28;20205;-74
2021/01/01 04:39:25;;;;;;;27.37;15.73;;;;;;;6.54;65.95;94187.81;5073550;28;20688;-73
2021/01/01 04:41:53;;;;;;;30.83;14.00;;;;;;;6.19;66.46;94195.53;5070646;27;20179;-73
2021/01/01 04:44:19;;;;;;;25.87;13.03;;;;;;;6.15;66.78;94186.69;5032517;28;20184;-72
2021/01/01 04:46:45;;;;;;;28.87;15.43;;;;;;;6.21;66.80;94195.19;5048351;28;20497;-74
2021/01/01 04:49:10;;;;;;;29.90;14.93;;;;;;;6.17;66.65;94195.06;5031889;28;20992;-72
2021/01/01 04:51:36;;;;;;;36.50;16.43;;;;;;;6.26;66.48;94200.25;5048649;28;20219;-72
2021/01/01 04:54:02;;;;;;;33.83;15.93;;;;;;;6.22;66.54;94210.75;5032299;28;20213;-72
2021/01/01 04:56:27;;;;;;;38.33;16.37;;;;;;;6.30;67.02;94212.53;5031820;28;20196;-73
2021/01/01 04:58:53;;;;;;;27.43;14.77;;;;;;;6.25;66.75;94202.13;5032900;28;20419;-75
2021/01/01 05:01:22;;;;;;;30.27;15.30;;;;;;;6.48;65.17;94209.63;5033004;28;20184;-72
2021/01/01 05:03:48;;;;;;;28.33;14.70;;;;;;;5.94;66.50;94213.28;5032967;28;20427;-74
2021/01/01 05:06:13;;;;;;;35.23;17.03;;;;;;;5.64;68.67;94217.25;5033245;28;20411;-74
2021/01/01 05:08:39;;;;;;;29.97;15.83;;;;;;;6.09;67.20;94217.16;5031754;28;20208;-74
2021/01/01 05:11:05;;;;;;;29.93;14.77;;;;;;;5.61;67.71;94220.53;5033038;28;20172;-72
2021/01/01 05:13:31;;;;;;;33.00;14.83;;;;;;;5.64;68.32;94225.94;5032569;28;20172;-74
2021/01/01 05:15:56;;;;;;;25.47;13.67;;;;;;;5.70;68.32;94232.59;5032749;28;20493;-73
2021/01/01 05:18:25;;;;;;;26.30;13.70;;;;;;;5.72;68.32;94238.31;5032493;28;20608;-73
2021/01/01 05:20:55;;;;;;;28.38;13.73;;;;;;;5.95;67.17;94235.28;5032760;28;20631;-72
2021/01/01 05:23:27;;;;;;;25.67;13.03;;;;;;;5.83;67.73;94234.13;5031553;28;20208;-72
2021/01/01 05:26:08;;;;;;;32.17;13.70;;;;;;;5.90;67.86;94240.78;5032193;28;20453;-72
2021/01/01 05:29:02;;;;;;;22.97;12.57;;;;;;;5.86;67.33;94237.25;5032141;28;20216;-72
2021/01/01 05:31:28;;;;;;;26.87;12.90;;;;;;;5.87;67.76;94244.09;5032533;28;20929;-73
2021/01/01 05:34:07;;;;;;;32.90;13.50;;;;;;;5.88;66.96;94251.69;5032182;28;20420;-71
2021/01/01 05:36:40;;;;;;;29.23;13.07;;;;;;;5.69;67.17;94252.22;5031249;28;20921;-73
2021/01/01 05:39:18;;;;;;;27.73;13.23;;;;;;;5.28;68.85;94256.56;5032234;28;20423;-71
2021/01/01 05:41:50;;;;;;;27.43;14.80;;;;;;;5.49;68.35;94263.66;5032429;28;20422;-73
2021/01/01 05:44:25;;;;;;;28.13;12.73;;;;;;;5.29;68.89;94266.03;5047461;28;20418;-73
2021/01/01 05:47:07;;;;;;;26.77;12.80;;;;;;;5.41;68.03;94262.66;5031948;28;20180;-74
2021/01/01 05:49:33;;;;;;;26.40;12.07;;;;;;;5.67;67.93;94258.94;5031909;28;20467;-73
2021/01/01 05:52:15;;;;;;;33.58;14.93;;;;;;;5.52;67.64;94269.09;5031129;28;20471;-72
2021/01/01 05:54:42;;;;;;;27.43;12.87;;;;;;;5.50;68.01;94268.66;5032152;28;20306;-73
2021/01/01 05:57:09;;;;;;;27.13;12.47;;;;;;;5.62;68.35;94265.25;5031907;28;20991;-75
2021/01/01 05:59:45;;;;;;;25.20;11.67;;;;;;;5.28;68.12;94269.00;5032077;28;20418;-75
2021/01/01 06:02:10;;;;;;;27.40;12.30;;;;;;;5.17;69.51;94278.47;5046866;28;20509;-71
2021/01/01 06:04:36;;;;;;;20.93;11.50;;;;;;;5.25;68.38;94280.25;5047154;28;20185;-73
2021/01/01 06:07:08;;;;;;;23.42;11.43;;;;;;;5.16;68.91;94282.97;5031820;28;20177;-72
2021/01/01 06:09:35;;;;;;;22.20;11.65;;;;;;;4.98;68.88;94270.97;5031786;28;20700;-73
2021/01/01 06:12:00;;;;;;;23.15;11.15;;;;;;;4.97;68.51;94293.25;5031751;28;20535;-73
2021/01/01 06:14:42;;;;;;;28.47;12.17;;;;;;;5.14;69.89;94287.03;5031842;28;20305;-72
2021/01/01 06:17:11;;;;;;;24.20;11.13;;;;;;;5.46;68.54;94293.44;5046794;28;20647;-73
2021/01/01 06:19:42;;;;;;;25.45;12.10;;;;;;;5.17;68.32;94302.28;5031516;28;20171;-73
2021/01/01 06:22:08;;;;;;;25.10;11.05;;;;;;;5.41;68.14;94299.72;5031512;28;20175;-73
2021/01/01 06:24:38;;;;;;;29.73;12.67;;;;;;;5.63;67.35;94303.09;5030309;28;20185;-73
2021/01/01 06:27:04;;;;;;;24.83;11.33;;;;;;;5.69;66.37;94296.50;5046323;28;20180;-73
2021/01/01 06:29:29;;;;;;;23.17;10.60;;;;;;;5.75;67.05;94308.41;5046769;28;20556;-74
2021/01/01 06:31:55;;;;;;;23.50;10.90;;;;;;;5.88;66.13;94314.50;5046989;28;20203;-73
2021/01/01 06:34:28;;;;;;;21.87;11.30;;;;;;;5.78;66.02;94313.84;5030217;28;20188;-73
2021/01/01 06:36:53;;;;;;;20.63;11.15;;;;;;;5.91;66.03;94319.16;5031655;28;20172;-73
2021/01/01 06:39:38;;;;;;;26.07;11.47;;;;;;;5.80;66.27;94326.75;5030166;28;20279;-74
2021/01/01 06:42:04;;;;;;;23.80;10.95;;;;;;;5.99;65.68;94332.34;5031201;28;20279;-73
2021/01/01 06:44:40;;;;;;;20.38;10.63;;;;;;;5.92;66.31;94336.63;5031350;28;20186;-73
2021/01/01 06:47:42;;;;;;;21.50;11.37;;;;;;;5.86;67.01;94343.22;5031448;28;20238;-72
2021/01/01 06:50:27;;;;;;;32.20;12.03;;;;;;;5.82;67.18;94337.78;5031378;28;20476;-72
2021/01/01 06:53:08;;;;;;;24.20;10.47;;;;;;;5.98;66.83;94340.63;5046732;28;20446;-73
2021/01/01 06:55:35;;;;;;;21.90;11.27;;;;;;;6.00;66.78;94341.06;5031330;28;20415;-73
2021/01/01 06:58:00;;;;;;;21.07;10.63;;;;;;;6.12;66.01;94342.94;5031383;28;20423;-73
2021/01/01 07:00:44;;;;;;;25.60;11.53;;;;;;;6.03;66.40;94349.13;5031008;28;20800;-73
2021/01/01 07:03:35;;;;;;;18.57;10.17;;;;;;;5.94;67.16;94348.44;5031194;28;20172;-73
2021/01/01 07:06:00;;;;;;;23.00;12.17;;;;;;;5.98;67.37;94341.41;5029849;28;20523;-72
2021/01/01 07:08:44;;;;;;;24.47;11.93;;;;;;;6.04;66.65;94345.38;5031192;28;20449;-73
2021/01/01 07:11:10;;;;;;;23.10;11.30;;;;;;;6.11;66.48;94350.13;5031019;28;20169;-72
2021/01/01 07:13:45;;;;;;;26.07;13.27;;;;;;;5.84;67.08;94354.16;5031182;28;20449;-73
2021/01/01 07:16:11;;;;;;;24.37;12.40;;;;;;;6.03;67.20;94358.97;5030968;28;20273;-74
2021/01/01 07:18:37;;;;;;;21.90;11.43;;;;;;;5.99;68.16;94358.06;5030108;28;20969;-71
2021/01/01 07:21:03;;;;;;;20.00;11.60;;;;;;;6.15;67.77;94355.56;5030943;28;20496;-70
2021/01/01 07:23:29;;;;;;;21.47;11.63;;;;;;;6.19;67.42;94340.56;5031062;28;20226;-72
2021/01/01 07:25:54;;;;;;;23.77;12.63;;;;;;;6.43;66.38;94353.81;5030802;28;20502;-73
2021/01/01 07:28:20;;;;;;;20.87;11.53;;;;;;;6.43;67.14;94361.00;5029859;28;20224;-70
2021/01/01 07:30:45;;;;;;;23.53;11.83;;;;;;;6.47;66.21;94367.97;5029705;28;20188;-73
2021/01/01 07:33:11;;;;;;;24.07;11.87;;;;;;;6.43;66.67;94376.91;5032698;28;20200;-72
2021/01/01 07:35:36;;;;;;;22.93;11.97;;;;;;;6.49;66.20;94376.38;5033272;28;20168;-72
2021/01/01 07:38:05;;;;;;;31.27;10.70;;;;;;;6.59;65.94;94373.28;5034643;28;20172;-72
2021/01/01 07:40:31;;;;;;;29.10;11.93;;;;;;;6.22;67.29;94371.69;5033486;28;20184;-72
2021/01/01 07:42:56;;;;;;;19.30;10.60;;;;;;;6.16;65.42;94362.41;5030960;28;20430;-71
2021/01/01 07:45:22;;;;;;;22.07;11.47;;;;;;;6.47;66.41;94378.59;5032256;28;20195;-72
2021/01/01 07:47:48;;;;;;;20.53;11.00;;;;;;;6.48;66.15;94380.13;5033810;28;20180;-73
2021/01/01 07:50:17;;;;;;;19.93;10.27;;;;;;;6.67;65.22;94384.09;5034143;28;20241;-72
2021/01/01 07:52:43;;;;;;;24.23;10.87;;;;;;;6.79;64.63;94389.41;5033688;28;20948;-73
2021/01/01 07:55:09;;;;;;;27.30;11.53;;;;;;;6.67;64.42;94376.16;5034184;28;20410;-73
2021/01/01 07:57:35;;;;;;;22.93;11.67;;;;;;;6.70;64.55;94370.97;5033739;28;20172;-73
2021/01/01 08:00:01;;;;;;;21.10;11.23;;;;;;;6.94;64.53;94390.63;5033765;28;20454;-72
2021/01/01 08:02:27;;;;;;;18.40;10.87;;;;;;;6.96;63.51;94391.06;5033843;28;20419;-73
2021/01/01 08:04:53;;;;;;;19.93;10.97;;;;;;;7.06;63.45;94393.25;5033987;28;20176;-72
2021/01/01 08:07:22;;;;;;;22.03;10.13;;;;;;;7.23;62.19;94397.53;5049395;28;20200;-72
2021/01/01 08:09:48;;;;;;;22.53;11.17;;;;;;;7.19;63.60;94404.66;5033797;28;20542;-72
2021/01/01 08:12:13;;;;;;;25.53;10.77;;;;;;;7.08;62.74;94378.56;5034038;28;20918;-72
2021/01/01 08:14:47;;;;;;;28.87;11.50;;;;;;;7.18;62.40;94411.06;5048380;28;20173;-72
2021/01/01 08:17:23;;;;;;;18.97;9.73;;;;;;;7.18;61.61;94406.50;5032571;28;20173;-72
2021/01/01 08:19:49;;;;;;;20.50;10.17;;;;;;;7.34;60.39;94409.25;5033392;28;20423;-71
2021/01/01 08:22:19;;;;;;;25.57;11.00;;;;;;;7.12;60.11;94411.28;5033683;28;20454;-71
2021/01/01 08:24:45;;;;;;;19.30;10.23;;;;;;;7.05;60.03;94416.38;5016227;28;20219;-72
2021/01/01 08:27:10;;;;;;;20.47;9.83;;;;;;;7.25;59.79;94413.94;5032329;28;20407;-74
2021/01/01 08:29:36;;;;;;;21.03;10.53;;;;;;;7.23;60.00;94416.13;5031697;28;20234;-73
2021/01/01 08:32:01;;;;;;;21.03;10.27;;;;;;;7.25;59.72;94411.28;5032293;28;20206;-72
2021/01/01 08:34:28;;;;;;;19.30;10.80;;;;;;;7.34;59.67;94410.03;5031976;28;20260;-72
2021/01/01 08:36:53;;;;;;;23.17;12.53;;;;;;;7.48;59.06;94415.00;5033290;28;20256;-72
2021/01/01 08:39:19;;;;;;;20.77;11.40;;;;;;;7.65;60.51;94422.69;5033046;28;20419;-72
2021/01/01 08:41:46;;;;;;;23.80;10.73;;;;;;;7.64;61.13;94421.16;5031899;28;20188;-72
2021/01/01 08:44:12;;;;;;;23.43;11.33;;;;;;;7.84;60.49;94421.28;5032647;28;20172;-73
2021/01/01 08:46:38;;;;;;;23.77;11.63;;;;;;;7.90;59.12;94428.69;5033149;28;20419;-72
2021/01/01 08:49:19;;;;;;;28.07;11.93;;;;;;;7.95;59.29;94427.66;5032961;28;20455;-72
2021/01/01 08:51:48;;;;;;;24.10;10.07;;;;;;;7.83;60.42;94422.41;5033170;28;20172;-73
2021/01/01 08:54:24;;;;;;;23.37;11.60;;;;;;;7.94;60.00;94434.09;5032785;28;20426;-72
2021/01/01 08:56:59;;;;;;;22.70;10.73;;;;;;;8.03;59.60;94424.09;5032661;28;20792;-72
2021/01/01 08:59:25;;;;;;;20.40;10.87;;;;;;;8.23;58.17;94422.31;5032717;28;20419;-72
2021/01/01 09:01:52;;;;;;;22.27;10.70;;;;;;;8.26;57.62;94419.00;5032954;28;20427;-72
2021/01/01 09:04:17;;;;;;;24.27;11.07;;;;;;;8.50;57.28;94425.31;5032612;28;20411;-72
2021/01/01 09:06:53;;;;;;;18.40;10.27;;;;;;;8.46;57.94;94426.00;5031763;28;20476;-71
2021/01/01 09:09:27;;;;;;;25.87;9.20;;;;;;;8.41;59.29;94430.78;5032549;28;20253;-74
2021/01/01 09:11:53;;;;;;;19.33;9.60;;;;;;;8.70;57.24;94432.28;5031672;28;20415;-72
2021/01/01 09:14:18;;;;;;;22.77;10.60;;;;;;;8.81;56.29;94430.66;5032685;28;20415;-72
2021/01/01 09:16:44;;;;;;;19.27;10.70;;;;;;;8.85;56.98;94428.84;5032820;28;20610;-73
2021/01/01 09:19:10;;;;;;;18.17;9.67;;;;;;;9.39;55.10;94433.50;5031621;28;20176;-72
2021/01/01 09:21:38;;;;;;;20.67;9.43;;;;;;;9.81;54.18;94430.16;5032357;28;20180;-72
2021/01/01 09:24:04;;;;;;;18.93;10.50;;;;;;;10.06;53.20;94420.75;5032432;28;20435;-73
2021/01/01 09:26:30;;;;;;;22.10;10.13;;;;;;;10.30;52.97;94435.72;5032505;28;20965;-72
2021/01/01 09:29:05;;;;;;;18.53;9.53;;;;;;;10.44;51.47;94424.53;5032229;28;20281;-73
2021/01/01 09:31:30;;;;;;;17.87;9.10;;;;;;;10.64;51.87;94433.25;5032273;28;20175;-73
2021/01/01 09:34:06;;;;;;;19.50;9.13;;;;;;;10.79;50.28;94439.63;5032476;28;20411;-72
2021/01/01 09:36:36;;;;;;;13.93;8.43;;;;;;;10.54;50.25;94421.25;5030831;28;20661;-72
2021/01/01 09:39:03;;;;;;;16.10;8.83;;;;;;;10.37;50.88;94434.28;5032429;28;20952;-73
2021/01/01 09:41:28;;;;;;;16.97;7.63;;;;;;;10.74;49.77;94438.00;5032216;28;20837;-73
2021/01/01 09:43:54;;;;;;;19.27;7.40;;;;;;;10.98;48.94;94438.75;5032288;28;20449;-73
2021/01/01 09:46:19;;;;;;;21.77;8.33;;;;;;;11.44;47.18;94434.09;5032037;28;20207;-73
2021/01/01 09:48:45;;;;;;;15.80;8.63;;;;;;;11.60;46.81;94418.66;5032097;28;20222;-73
2021/01/01 09:51:10;;;;;;;19.03;8.30;;;;;;;11.86;45.66;94433.16;5031819;28;20580;-72
2021/01/01 09:53:36;;;;;;;19.50;7.83;;;;;;;12.66;45.32;94425.59;5032089;28;20177;-71
2021/01/01 09:56:01;;;;;;;19.40;9.80;;;;;;;12.08;45.39;94428.84;5031816;28;20191;-71
2021/01/01 09:58:27;;;;;;;14.80;7.40;;;;;;;11.95;45.77;94430.19;5030593;28;20257;-70
2021/01/01 10:00:52;;;;;;;15.77;7.87;;;;;;;11.64;45.26;94432.09;5032312;28;20712;-70
2021/01/01 10:03:18;;;;;;;15.37;7.30;;;;;;;11.40;44.98;94414.59;5031784;28;20179;-72
2021/01/01 10:05:46;;;;;;;14.50;7.30;;;;;;;11.87;44.66;94424.75;5032038;28;20176;-68
2021/01/01 10:08:14;;;;;;;18.13;7.20;;;;;;;11.89;45.24;94419.81;5031652;28;20169;-70
2021/01/01 10:10:39;;;;;;;13.83;6.93;;;;;;;11.63;45.73;94415.28;5031969;28;20980;-71
2021/01/01 10:13:05;;;;;;;12.73;7.03;;;;;;;11.78;45.51;94426.91;5031614;28;20447;-70
2021/01/01 10:15:30;;;;;;;14.97;7.67;;;;;;;12.04;44.84;94417.31;5031836;28;20161;-71
2021/01/01 10:17:56;;;;;;;11.03;5.60;;;;;;;12.33;45.06;94413.81;5031549;28;20172;-69
2021/01/01 10:20:21;;;;;;;13.07;5.87;;;;;;;12.04;44.45;94418.09;5031783;28;20720;-71
2021/01/01 10:22:47;;;;;;;9.20;5.43;;;;;;;11.85;46.13;94410.22;5031606;28;20169;-69
2021/01/01 10:25:12;;;;;;;11.77;5.57;;;;;;;12.01;46.18;94407.31;5031635;28;20176;-68
2021/01/01 10:27:38;;;;;;;12.43;4.87;;;;;;;11.66;46.03;94413.75;5031411;28;20307;-69
2021/01/01 10:30:07;;;;;;;11.50;5.40;;;;;;;11.37;45.96;94410.72;5031274;28;20200;-69
2021/01/01 10:32:32;;;;;;;12.27;5.10;;;;;;;11.15;45.95;94395.50;5031561;28;20172;-69
2021/01/01 10:34:58;;;;;;;14.43;5.27;;;;;;;10.83;48.75;94401.16;5031248;28;20434;-69
2021/01/01 10:37:23;;;;;;;9.50;6.17;;;;;;;10.86;48.04;94392.41;5031406;28;20558;-69
2021/01/01 10:39:49;;;;;;;11.50;5.17;;;;;;;10.78;48.70;94393.44;5030057;28;20292;-69
2021/01/01 10:42:14;;;;;;;8.03;4.77;;;;;;;10.78;47.78;94393.44;5031579;28;20172;-69
2021/01/01 10:44:40;;;;;;;11.67;5.53;;;;;;;10.40;49.39;94377.56;5031313;28;20199;-70
2021/01/01 10:47:05;;;;;;;15.37;5.13;;;;;;;10.32;49.24;94389.97;5031514;28;20192;-71
2021/01/01 10:49:32;;;;;;;13.30;5.53;;;;;;;10.39;49.48;94382.13;5030873;28;20200;-71
2021/01/01 10:51:58;;;;;;;10.90;5.53;;;;;;;10.37;49.42;94386.25;5031195;28;20237;-69
2021/01/01 10:54:24;;;;;;;15.60;6.50;;;;;;;10.14;51.86;94373.63;5031419;28;20497;-72
2021/01/01 10:56:50;;;;;;;13.03;5.63;;;;;;;10.51;49.65;94368.59;5031224;28;20172;-71
2021/01/01 10:59:15;;;;;;;9.03;5.43;;;;;;;10.40;49.95;94372.22;5031398;28;20434;-72
2021/01/01 11:01:41;;;;;;;11.73;6.10;;;;;;;10.48;49.14;94371.97;5029718;28;21117;-70
2021/01/01 11:04:06;;;;;;;10.77;4.60;;;;;;;10.55;49.39;94371.31;5031169;28;20226;-71
2021/01/01 11:06:35;;;;;;;9.63;5.37;;;;;;;10.81;50.09;94366.00;5033263;28;20794;-71
2021/01/01 11:09:01;;;;;;;11.60;5.53;;;;;;;10.58;48.13;94370.59;5034982;28;20196;-69
2021/01/01 11:11:26;;;;;;;12.37;4.47;;;;;;;10.51;49.64;94360.59;5050267;28;20422;-70
2021/01/01 11:13:57;;;;;;;5.83;3.50;;;;;;;10.86;49.88;94367.59;5035149;28;20663;-70
2021/01/01 12:25:27;;;;;;;1.00;0.93;;;;;;;10.65;38.68;94352.03;5033851;28;20486;-74
2021/01/01 12:27:55;;;;;;;0.90;0.90;;;;;;;10.82;38.87;94366.78;5015925;28;20911;-73
2021/01/01 12:30:23;;;;;;;2.33;1.50;;;;;;;10.85;39.59;94377.53;5015956;28;20694;-74
2021/01/01 12:32:50;;;;;;;5.17;2.77;;;;;;;10.68;40.74;94367.34;5033114;28;20423;-74
2021/01/01 12:35:15;;;;;;;3.57;2.40;;;;;;;10.82;41.13;94378.22;5032137;28;20876;-72